createdAt,value
2018-06-16T00:00:25.626Z,5.57
2018-06-16T00:04:19.709Z,5.53
2018-06-16T00:08:13.888Z,6.78
2018-06-16T00:12:07.939Z,5.80
2018-06-16T00:16:01.959Z,7.03
2018-06-16T00:19:55.939Z,6.92
2018-06-16T00:23:49.955Z,3.55
2018-06-16T00:27:43.970Z,6.25
2018-06-16T00:31:38.377Z,4.78
2018-06-16T00:35:36.227Z,7.30
2018-06-16T00:39:29.943Z,3.95
2018-06-16T00:43:23.945Z,7.40
2018-06-16T00:47:18.078Z,7.10
2018-06-16T00:51:12.097Z,5.13
2018-06-16T00:55:06.435Z,5.73
2018-06-16T00:59:00.467Z,3.77
2018-06-16T01:02:54.476Z,4.87
2018-06-16T01:06:49.535Z,5.75
2018-06-16T01:10:43.675Z,5.60
2018-06-16T01:14:37.683Z,6.35
2018-06-16T01:18:31.815Z,4.75
2018-06-16T01:22:25.827Z,5.80
2018-06-16T01:26:19.833Z,5.15
2018-06-16T01:30:13.853Z,6.15
2018-06-16T01:34:07.906Z,8.73
2018-06-16T01:38:02.048Z,6.10
2018-06-16T01:41:55.508Z,6.47
2018-06-16T01:45:50.682Z,6.47
2018-06-16T01:49:45.631Z,6.47
2018-06-16T01:53:39.419Z,4.90
2018-06-16T01:57:33.355Z,7.83
2018-06-16T02:01:27.631Z,7.45
2018-06-16T02:05:21.582Z,6.85
2018-06-16T02:09:15.681Z,7.50
2018-06-16T02:13:09.799Z,8.07
2018-06-16T02:17:03.870Z,7.03
2018-06-16T02:20:57.904Z,7.00
2018-06-16T02:24:51.902Z,8.33
2018-06-16T02:28:46.564Z,5.75
2018-06-16T02:32:40.072Z,8.38
2018-06-16T02:36:34.271Z,7.55
2018-06-16T02:40:28.341Z,7.22
2018-06-16T02:44:22.682Z,6.17
2018-06-16T02:48:16.796Z,8.07
2018-06-16T02:52:11.422Z,6.70
2018-06-16T02:56:05.585Z,12.25
2018-06-16T02:59:59.724Z,8.80
2018-06-16T03:03:54.168Z,8.93
2018-06-16T03:07:48.852Z,8.65
2018-06-16T03:11:42.916Z,8.73
2018-06-16T03:15:39.123Z,9.40
2018-06-16T03:19:33.725Z,6.33
2018-06-16T03:23:27.856Z,9.80
2018-06-16T03:27:21.600Z,7.80
2018-06-16T03:31:15.910Z,7.90
2018-06-16T03:35:10.027Z,8.03
2018-06-16T03:39:04.615Z,7.47
2018-06-16T03:42:59.194Z,12.47
2018-06-16T03:46:53.622Z,8.43
2018-06-16T03:50:47.702Z,9.60
2018-06-16T03:54:41.996Z,6.90
2018-06-16T03:58:35.958Z,7.37
2018-06-16T04:02:30.127Z,10.50
2018-06-16T04:06:24.254Z,9.33
2018-06-16T04:10:18.448Z,8.47
2018-06-16T04:14:12.529Z,8.27
2018-06-16T04:18:06.651Z,7.55
2018-06-16T04:22:00.669Z,7.07
2018-06-16T04:25:54.658Z,6.77
2018-06-16T04:29:48.777Z,9.58
2018-06-16T04:33:42.860Z,9.20
2018-06-16T04:37:36.608Z,7.67
2018-06-16T04:41:30.589Z,9.00
2018-06-16T04:45:24.555Z,8.77
2018-06-16T04:49:18.559Z,9.83
2018-06-16T04:53:12.581Z,7.47
2018-06-16T04:57:06.633Z,6.43
2018-06-16T05:01:01.574Z,9.65
2018-06-16T05:04:56.682Z,6.93
2018-06-16T05:08:50.807Z,9.70
2018-06-16T05:12:44.734Z,9.43
2018-06-16T05:16:38.893Z,9.10
2018-06-16T05:20:32.975Z,12.23
2018-06-16T05:24:27.123Z,10.60
2018-06-16T05:28:21.892Z,9.88
2018-06-16T05:32:16.106Z,10.20
2018-06-16T05:36:09.601Z,8.60
2018-06-16T05:40:03.590Z,10.73
2018-06-16T05:43:58.169Z,14.63
2018-06-16T05:47:54.950Z,7.97
2018-06-16T05:51:49.319Z,10.43
2018-06-16T05:55:43.316Z,12.85
2018-06-16T05:59:37.518Z,12.75
2018-06-16T06:03:31.592Z,13.28
2018-06-16T06:07:25.700Z,13.93
2018-06-16T06:11:20.459Z,11.00
2018-06-16T06:15:14.440Z,14.18
2018-06-16T06:19:08.525Z,14.60
2018-06-16T06:23:02.562Z,14.93
2018-06-16T06:26:57.107Z,18.17
2018-06-16T06:30:51.209Z,14.93
2018-06-16T06:34:45.374Z,18.92
2018-06-16T06:38:40.052Z,19.12
2018-06-16T06:42:33.814Z,21.07
2018-06-16T06:46:28.037Z,20.20
2018-06-16T06:50:22.116Z,18.03
2018-06-16T06:54:16.587Z,19.70
2018-06-16T06:58:11.571Z,19.50
2018-06-16T07:02:06.549Z,20.52
2018-06-16T07:06:02.189Z,22.23
2018-06-16T07:09:57.185Z,19.75
2018-06-16T07:13:53.919Z,19.57
2018-06-16T07:17:49.646Z,20.35
2018-06-16T07:21:44.249Z,16.25
2018-06-16T07:25:40.487Z,18.65
2018-06-16T07:29:35.432Z,20.93
2018-06-16T07:33:30.294Z,20.90
2018-06-16T07:37:36.483Z,23.87
2018-06-16T07:41:32.936Z,22.42
2018-06-16T07:45:29.066Z,20.25
2018-06-16T07:49:23.124Z,25.17
2018-06-16T07:57:36.167Z,21.50
2018-06-16T08:01:30.393Z,22.60
2018-06-16T08:05:25.279Z,19.37
2018-06-16T08:09:20.861Z,20.37
2018-06-16T08:30:29.309Z,20.30
2018-06-16T08:34:23.056Z,19.02
2018-06-16T08:38:17.644Z,20.45
2018-06-16T08:42:12.643Z,18.45
2018-06-16T08:46:06.844Z,17.95
2018-06-16T08:51:56.556Z,18.35
2018-06-16T08:55:50.886Z,18.42
2018-06-16T08:59:45.087Z,20.70
2018-06-16T09:03:39.898Z,22.37
2018-06-16T09:07:34.455Z,23.73
2018-06-16T09:11:28.898Z,18.23
2018-06-16T09:15:23.079Z,17.98
2018-06-16T09:19:17.167Z,17.67
2018-06-16T09:23:12.053Z,14.85
2018-06-16T09:27:06.159Z,13.10
2018-06-16T09:31:04.047Z,13.85
2018-06-16T09:34:57.627Z,18.02
2018-06-16T09:38:51.859Z,15.10
2018-06-16T09:42:46.845Z,15.97
2018-06-16T09:46:42.283Z,15.60
2018-06-16T09:50:42.373Z,15.00
2018-06-16T09:54:36.531Z,17.93
2018-06-16T09:58:31.974Z,11.63
2018-06-16T10:02:26.073Z,13.55
2018-06-16T10:06:20.848Z,10.80
2018-06-16T10:10:15.620Z,12.20
2018-06-16T10:14:10.422Z,10.50
2018-06-16T10:18:06.159Z,12.20
2018-06-16T10:22:00.980Z,7.67
2018-06-16T10:25:55.030Z,10.27
2018-06-16T10:29:52.318Z,10.43
2018-06-16T10:33:46.699Z,10.98
2018-06-16T10:37:41.196Z,6.80
2018-06-16T10:41:34.913Z,8.45
2018-06-16T10:45:29.043Z,7.65
2018-06-16T10:49:23.429Z,7.20
2018-06-16T10:53:18.206Z,8.53
2018-06-16T10:57:16.807Z,7.80
2018-06-16T11:01:10.877Z,9.37
2018-06-16T11:05:05.530Z,11.70
2018-06-16T11:09:02.439Z,9.83
2018-06-16T11:12:56.486Z,7.80
2018-06-16T11:16:51.147Z,9.90
2018-06-16T11:20:49.784Z,7.10
2018-06-16T11:24:43.832Z,11.70
2018-06-16T11:28:38.269Z,8.18
2018-06-16T11:32:36.471Z,10.57
2018-06-16T11:36:30.709Z,8.53
2018-06-16T11:40:24.866Z,10.63
2018-06-16T11:44:20.279Z,9.33
2018-06-16T11:48:17.665Z,10.53
2018-06-16T11:52:11.651Z,7.53
2018-06-16T11:56:12.136Z,7.28
2018-06-16T12:00:06.391Z,4.83
2018-06-16T12:04:03.978Z,6.55
2018-06-16T12:07:58.254Z,6.47
2018-06-16T12:11:55.505Z,7.30
2018-06-16T12:15:49.709Z,14.38
2018-06-16T12:23:54.501Z,6.85
2018-06-16T12:27:49.713Z,10.18
2018-06-16T12:31:43.934Z,11.63
2018-06-16T12:35:41.605Z,8.85
2018-06-16T12:39:38.406Z,6.50
2018-06-16T12:43:33.198Z,9.75
2018-06-16T12:47:28.207Z,5.87
2018-06-16T12:51:23.125Z,9.80
2018-06-16T12:55:17.514Z,6.80
2018-06-16T12:59:11.698Z,9.30
2018-06-16T13:03:05.531Z,10.67
2018-06-16T13:06:59.754Z,7.87
2018-06-16T13:10:53.870Z,6.03
2018-06-16T13:14:47.966Z,5.92
2018-06-16T13:18:42.442Z,8.30
2018-06-16T13:22:36.414Z,7.12
2018-06-16T13:26:30.500Z,7.07
2018-06-16T13:30:26.288Z,5.12
2018-06-16T13:34:20.240Z,7.70
2018-06-16T13:38:14.367Z,10.53
2018-06-16T13:42:08.616Z,6.10
2018-06-16T13:46:02.900Z,6.43
2018-06-16T13:49:57.088Z,7.75
2018-06-16T13:53:51.132Z,6.90
2018-06-16T13:57:46.512Z,5.47
2018-06-16T14:01:41.654Z,9.63
2018-06-16T14:05:35.769Z,6.12
2018-06-16T14:09:29.738Z,6.53
2018-06-16T14:13:24.019Z,6.90
2018-06-16T14:17:18.018Z,4.40
2018-06-16T14:21:12.598Z,6.53
2018-06-16T14:25:06.749Z,6.28
2018-06-16T14:29:02.088Z,7.95
2018-06-16T14:32:56.324Z,5.30
2018-06-16T14:36:51.596Z,6.35
2018-06-16T14:40:46.448Z,6.45
2018-06-16T14:44:41.271Z,7.53
2018-06-16T14:48:35.193Z,6.17
2018-06-16T14:52:29.232Z,4.90
2018-06-16T14:56:23.472Z,4.55
2018-06-16T15:00:17.675Z,6.17
2018-06-16T15:04:12.236Z,6.15
2018-06-16T15:08:06.383Z,6.07
2018-06-16T15:12:00.530Z,5.08
2018-06-16T15:15:54.750Z,4.47
2018-06-16T15:19:48.878Z,5.37
2018-06-16T15:23:43.167Z,6.13
2018-06-16T15:27:37.527Z,6.63
2018-06-16T15:31:31.990Z,4.85
2018-06-16T15:35:26.187Z,5.17
2018-06-16T15:39:20.308Z,5.90
2018-06-16T15:43:14.623Z,3.60
2018-06-16T15:47:09.408Z,5.27
2018-06-16T15:51:03.903Z,5.25
2018-06-16T15:54:57.959Z,5.33
2018-06-16T15:58:54.378Z,5.37
2018-06-16T16:02:48.524Z,7.07
2018-06-16T16:06:42.663Z,5.12
2018-06-16T16:10:36.797Z,5.03
2018-06-16T16:14:31.027Z,7.37
2018-06-16T16:18:25.281Z,7.78
2018-06-16T16:22:19.327Z,7.20
2018-06-16T16:26:13.543Z,4.13
2018-06-16T16:30:07.707Z,4.90
2018-06-16T16:34:01.882Z,7.43
2018-06-16T16:37:56.114Z,7.78
2018-06-16T16:41:50.394Z,9.83
2018-06-16T16:45:44.387Z,12.57
2018-06-16T16:49:38.760Z,8.63
2018-06-16T16:53:33.754Z,9.33
2018-06-16T16:57:27.975Z,10.25
2018-06-16T17:01:22.023Z,17.23
2018-06-16T17:05:16.096Z,6.97
2018-06-16T17:09:11.478Z,9.73
2018-06-16T17:13:05.514Z,8.08
2018-06-16T17:16:59.579Z,7.72
2018-06-16T17:20:54.381Z,6.35
2018-06-16T17:24:48.410Z,7.70
2018-06-16T17:28:42.358Z,8.47
2018-06-16T17:32:36.320Z,9.20
2018-06-16T17:36:30.461Z,8.30
2018-06-16T17:40:24.628Z,6.97
2018-06-16T17:44:19.468Z,7.30
2018-06-16T17:48:13.424Z,8.13
2018-06-16T17:52:07.627Z,8.27
2018-06-16T17:56:01.711Z,8.57
2018-06-16T17:59:55.775Z,8.50
2018-06-16T18:03:51.402Z,8.43
2018-06-16T18:07:45.535Z,8.20
2018-06-16T18:11:40.690Z,8.83
2018-06-16T18:15:34.784Z,9.95
2018-06-16T18:19:29.428Z,8.95
2018-06-16T18:23:24.564Z,11.83
2018-06-16T18:27:18.636Z,12.97
2018-06-16T18:31:12.589Z,8.78
2018-06-16T18:35:06.958Z,11.40
2018-06-16T18:39:01.069Z,10.30
2018-06-16T18:42:55.265Z,11.43
2018-06-16T18:46:50.087Z,10.53
2018-06-16T18:50:44.087Z,10.10
2018-06-16T18:54:39.241Z,8.66
2018-06-16T18:58:33.459Z,11.95
2018-06-16T19:02:27.569Z,10.83
2018-06-16T19:06:22.051Z,10.40
2018-06-16T19:10:15.786Z,13.27
2018-06-16T19:14:09.733Z,11.80
2018-06-16T19:18:03.751Z,11.28
2018-06-16T19:21:57.734Z,9.80
2018-06-16T19:25:52.282Z,12.37
2018-06-16T19:29:46.326Z,10.95
2018-06-16T19:33:42.431Z,12.50
2018-06-16T19:37:39.267Z,11.23
2018-06-16T19:41:33.302Z,13.33
2018-06-16T19:45:27.292Z,14.07
2018-06-16T19:49:21.371Z,14.25
2018-06-16T19:53:15.338Z,15.87
2018-06-16T19:57:09.959Z,14.47
2018-06-16T20:01:04.070Z,14.03
2018-06-16T20:04:58.950Z,14.13
2018-06-16T20:08:54.596Z,15.07
2018-06-16T20:12:48.694Z,16.05
2018-06-16T20:16:42.993Z,17.62
2018-06-16T20:20:37.010Z,16.82
2018-06-16T20:24:31.162Z,15.00
2018-06-16T20:28:25.166Z,14.78
2018-06-16T20:32:19.936Z,13.58
2018-06-16T20:36:14.185Z,16.52
2018-06-16T20:40:08.248Z,14.60
2018-06-16T20:44:02.304Z,14.60
2018-06-16T20:47:56.408Z,15.35
2018-06-16T20:51:52.004Z,17.85
2018-06-16T20:55:46.137Z,15.43
2018-06-16T20:59:40.128Z,19.47
2018-06-16T21:03:34.818Z,17.65
2018-06-16T21:07:29.261Z,16.75
2018-06-16T21:11:29.406Z,17.62
2018-06-16T21:15:23.732Z,17.00
2018-06-16T21:19:17.852Z,19.20
2018-06-16T21:23:11.852Z,13.80
2018-06-16T21:27:06.324Z,14.05
2018-06-16T21:31:00.504Z,14.68
2018-06-16T21:34:55.337Z,17.03
2018-06-16T21:38:50.119Z,17.50
2018-06-16T21:42:44.814Z,15.80
2018-06-16T21:46:40.483Z,13.10
2018-06-16T21:50:35.023Z,14.30
2018-06-16T21:54:29.503Z,15.85
2018-06-16T21:58:23.780Z,11.70
2018-06-16T22:02:17.809Z,17.33
2018-06-16T22:06:12.317Z,17.73
2018-06-16T22:10:07.356Z,18.70
2018-06-16T22:14:01.492Z,14.93
2018-06-16T22:17:55.519Z,18.90
2018-06-16T22:21:49.771Z,19.57
2018-06-16T22:25:43.903Z,21.57
2018-06-16T22:29:37.973Z,15.00
2018-06-16T22:33:31.971Z,15.23
2018-06-16T22:37:26.184Z,11.70
2018-06-16T22:41:21.427Z,12.93
2018-06-16T22:45:15.435Z,18.67
2018-06-16T22:49:09.465Z,13.80
2018-06-16T22:53:03.482Z,15.80
2018-06-16T22:56:57.721Z,17.98
2018-06-16T23:00:51.650Z,19.47
2018-06-16T23:04:45.708Z,18.57
2018-06-16T23:08:39.648Z,13.60
2018-06-16T23:12:33.912Z,17.80
2018-06-16T23:16:27.833Z,16.17
2018-06-16T23:20:21.827Z,15.00
2018-06-16T23:24:15.871Z,15.45
2018-06-16T23:28:10.283Z,17.95
2018-06-16T23:32:04.941Z,16.77
2018-06-16T23:35:58.951Z,16.27
2018-06-16T23:39:53.245Z,15.18
2018-06-16T23:43:47.304Z,13.47
2018-06-16T23:47:41.001Z,17.93
2018-06-16T23:51:34.920Z,13.38
2018-06-16T23:55:28.879Z,14.23
2018-06-16T23:59:23.900Z,12.67
